createdAt,value
2018-12-26T00:00:57.677Z,17.50
2018-12-26T00:03:27.119Z,17.50
2018-12-26T00:05:57.645Z,17.50
2018-12-26T00:08:27.290Z,17.40
2018-12-26T00:10:57.735Z,17.40
2018-12-26T00:13:28.322Z,17.50
2018-12-26T00:15:58.919Z,17.40
2018-12-26T00:18:26.847Z,17.50
2018-12-26T00:20:57.771Z,17.40
2018-12-26T00:23:28.467Z,17.40
2018-12-26T00:26:01.687Z,17.40
2018-12-26T00:28:28.787Z,17.40
2018-12-26T00:30:56.576Z,17.40
2018-12-26T00:33:27.473Z,17.40
2018-12-26T00:35:58.600Z,17.40
2018-12-26T00:38:26.389Z,17.40
2018-12-26T00:40:57.370Z,17.40
2018-12-26T00:43:27.839Z,17.40
2018-12-26T00:45:58.401Z,17.40
2018-12-26T00:48:29.313Z,17.40
2018-12-26T00:50:59.740Z,17.40
2018-12-26T00:53:30.506Z,17.40
2018-12-26T00:55:58.275Z,17.40
2018-12-26T00:58:29.166Z,17.40
2018-12-26T01:00:56.959Z,17.40
2018-12-26T01:03:27.704Z,17.40
2018-12-26T01:05:58.338Z,17.40
2018-12-26T01:08:26.546Z,17.40
2018-12-26T01:10:57.321Z,17.40
2018-12-26T01:13:27.986Z,17.40
2018-12-26T01:15:58.468Z,17.40
2018-12-26T01:18:26.244Z,17.30
2018-12-26T01:20:56.305Z,17.30
2018-12-26T01:23:25.141Z,17.30
2018-12-26T01:25:53.270Z,17.30
2018-12-26T01:28:21.041Z,17.30
2018-12-26T01:30:48.861Z,17.30
2018-12-26T01:33:16.643Z,17.30
2018-12-26T01:35:44.429Z,17.30
2018-12-26T01:38:12.207Z,17.30
2018-12-26T01:40:40.030Z,17.30
2018-12-26T01:43:07.797Z,17.30
2018-12-26T01:45:35.570Z,17.30
2018-12-26T01:48:03.341Z,17.20
2018-12-26T01:50:31.144Z,17.30
2018-12-26T01:52:59.092Z,17.30
2018-12-26T01:55:26.927Z,17.30
2018-12-26T01:57:56.450Z,17.30
2018-12-26T02:00:25.184Z,17.20
2018-12-26T02:02:52.969Z,17.30
2018-12-26T02:05:20.767Z,17.30
2018-12-26T02:07:48.548Z,17.30
2018-12-26T02:10:16.326Z,17.30
2018-12-26T02:12:44.100Z,17.30
2018-12-26T02:15:11.877Z,17.30
2018-12-26T02:17:42.445Z,17.30
2018-12-26T02:20:10.217Z,17.30
2018-12-26T02:22:38.001Z,17.20
2018-12-26T02:25:06.042Z,17.20
2018-12-26T02:27:33.816Z,17.30
2018-12-26T02:30:01.606Z,17.20
2018-12-26T02:32:30.483Z,17.30
2018-12-26T02:34:58.374Z,17.20
2018-12-26T02:37:29.169Z,17.30
2018-12-26T02:39:56.966Z,17.30
2018-12-26T02:42:24.746Z,17.20
2018-12-26T02:44:58.539Z,17.20
2018-12-26T02:47:26.322Z,17.20
2018-12-26T02:49:57.294Z,17.20
2018-12-26T02:52:25.073Z,17.20
2018-12-26T02:54:52.856Z,17.20
2018-12-26T02:57:20.647Z,17.20
2018-12-26T02:59:48.841Z,17.20
2018-12-26T03:02:16.616Z,17.20
2018-12-26T03:04:47.442Z,17.20
2018-12-26T03:07:15.189Z,17.20
2018-12-26T03:09:42.974Z,17.20
2018-12-26T03:12:10.767Z,17.20
2018-12-26T03:14:38.545Z,17.20
2018-12-26T03:17:06.331Z,17.20
2018-12-26T03:19:34.104Z,17.20
2018-12-26T03:22:01.895Z,17.20
2018-12-26T03:24:29.684Z,17.20
2018-12-26T03:26:57.466Z,17.20
2018-12-26T03:29:26.889Z,17.20
2018-12-26T03:31:56.313Z,17.20
2018-12-26T03:34:26.854Z,17.20
2018-12-26T03:36:56.384Z,17.20
2018-12-26T03:39:27.073Z,17.20
2018-12-26T03:41:54.931Z,17.20
2018-12-26T03:44:22.723Z,17.10
2018-12-26T03:46:50.497Z,17.10
2018-12-26T03:49:18.288Z,17.20
2018-12-26T03:51:46.080Z,17.20
2018-12-26T03:54:16.631Z,17.20
2018-12-26T03:56:47.722Z,17.20
2018-12-26T03:59:15.565Z,17.20
2018-12-26T04:01:43.349Z,17.20
2018-12-26T04:04:11.137Z,17.20
2018-12-26T04:06:41.672Z,17.20
2018-12-26T04:09:12.406Z,17.10
2018-12-26T04:11:42.954Z,17.10
2018-12-26T04:14:13.999Z,17.10
2018-12-26T04:16:44.504Z,17.10
2018-12-26T04:19:15.028Z,17.10
2018-12-26T04:21:45.667Z,17.10
2018-12-26T04:24:16.441Z,17.10
2018-12-26T04:26:47.182Z,17.10
2018-12-26T04:29:18.047Z,17.10
2018-12-26T04:31:48.800Z,17.10
2018-12-26T04:34:19.700Z,17.10
2018-12-26T04:36:47.853Z,17.10
2018-12-26T04:39:18.649Z,17.10
2018-12-26T04:41:49.466Z,17.10
2018-12-26T04:44:20.240Z,17.10
2018-12-26T04:46:48.032Z,17.10
2018-12-26T04:49:18.716Z,17.10
2018-12-26T04:51:49.270Z,17.10
2018-12-26T04:54:19.907Z,17.10
2018-12-26T04:56:50.677Z,17.10
2018-12-26T04:59:21.434Z,17.10
2018-12-26T05:01:52.136Z,17.10
2018-12-26T05:04:22.913Z,17.10
2018-12-26T05:06:53.763Z,17.10
2018-12-26T05:09:25.365Z,17.10
2018-12-26T05:11:56.095Z,17.20
2018-12-26T05:14:25.695Z,17.20
2018-12-26T05:16:55.568Z,17.30
2018-12-26T05:19:29.136Z,17.40
2018-12-26T05:21:59.901Z,17.40
2018-12-26T05:24:30.833Z,17.50
2018-12-26T05:26:58.662Z,17.50
2018-12-26T05:29:29.268Z,17.50
2018-12-26T05:31:57.063Z,17.50
2018-12-26T05:34:24.831Z,17.60
2018-12-26T05:36:52.930Z,17.60
2018-12-26T05:39:20.707Z,17.60
2018-12-26T05:41:48.524Z,17.60
2018-12-26T05:44:16.309Z,17.60
2018-12-26T05:46:44.104Z,17.70
2018-12-26T05:49:11.876Z,17.60
2018-12-26T05:51:39.694Z,17.60
2018-12-26T05:54:07.491Z,17.60
2018-12-26T05:56:38.230Z,17.70
2018-12-26T05:59:06.384Z,17.70
2018-12-26T06:01:34.144Z,17.70
2018-12-26T06:04:04.783Z,17.60
2018-12-26T06:06:32.558Z,17.60
2018-12-26T06:09:00.388Z,17.70
2018-12-26T06:11:30.891Z,17.70
2018-12-26T06:13:58.712Z,17.70
2018-12-26T06:16:26.493Z,17.70
2018-12-26T06:18:57.455Z,17.70
2018-12-26T06:21:25.231Z,17.70
2018-12-26T06:23:55.978Z,17.70
2018-12-26T06:26:23.816Z,17.70
2018-12-26T06:28:51.868Z,17.70
2018-12-26T06:31:19.670Z,17.70
2018-12-26T06:33:50.508Z,17.70
2018-12-26T06:36:21.619Z,17.70
2018-12-26T06:38:49.395Z,17.70
2018-12-26T06:41:20.122Z,17.70
2018-12-26T06:43:50.679Z,17.70
2018-12-26T06:46:21.503Z,17.70
2018-12-26T06:48:52.079Z,17.70
2018-12-26T06:51:21.070Z,17.70
2018-12-26T06:53:48.860Z,17.70
2018-12-26T06:56:16.864Z,17.70
2018-12-26T06:58:47.604Z,17.70
2018-12-26T07:01:18.410Z,17.70
2018-12-26T07:03:46.196Z,17.70
2018-12-26T07:06:16.927Z,17.70
2018-12-26T07:08:47.445Z,17.70
2018-12-26T07:11:15.225Z,17.80
2018-12-26T07:13:45.959Z,17.70
2018-12-26T07:16:16.563Z,17.70
2018-12-26T07:18:47.098Z,17.70
2018-12-26T07:21:17.698Z,17.70
2018-12-26T07:23:48.421Z,17.70
2018-12-26T07:26:16.203Z,17.70
2018-12-26T07:28:44.030Z,17.70
2018-12-26T07:31:14.817Z,17.70
2018-12-26T07:33:45.316Z,17.70
2018-12-26T07:36:16.008Z,17.70
2018-12-26T07:38:43.798Z,17.70
2018-12-26T07:41:11.580Z,17.80
2018-12-26T07:43:42.410Z,17.70
2018-12-26T07:46:13.012Z,17.80
2018-12-26T07:48:40.838Z,17.80
2018-12-26T07:51:09.172Z,17.80
2018-12-26T07:53:37.006Z,17.80
2018-12-26T07:56:04.785Z,17.80
2018-12-26T07:58:32.607Z,17.80
2018-12-26T08:01:00.389Z,17.80
2018-12-26T08:03:30.924Z,17.80
2018-12-26T08:05:58.696Z,17.80
2018-12-26T08:08:26.478Z,17.80
2018-12-26T08:10:54.701Z,17.80
2018-12-26T08:13:22.479Z,17.80
2018-12-26T08:15:50.303Z,17.80
2018-12-26T08:18:18.132Z,17.80
2018-12-26T08:20:48.893Z,17.80
2018-12-26T08:23:16.680Z,17.80
2018-12-26T08:25:44.465Z,17.80
2018-12-26T08:28:12.286Z,17.80
2018-12-26T08:30:40.052Z,17.80
2018-12-26T08:33:07.841Z,17.80
2018-12-26T08:35:35.635Z,17.80
2018-12-26T08:38:06.176Z,17.80
2018-12-26T08:40:33.977Z,17.80
2018-12-26T08:43:01.735Z,17.80
2018-12-26T08:45:29.518Z,17.80
2018-12-26T08:47:57.303Z,17.70
2018-12-26T08:50:27.656Z,17.80
2018-12-26T08:52:59.742Z,17.70
2018-12-26T08:55:30.599Z,17.70
2018-12-26T08:57:58.389Z,17.70
2018-12-26T09:00:28.919Z,17.70
2018-12-26T09:02:56.707Z,17.70
2018-12-26T09:05:24.532Z,17.70
2018-12-26T09:07:52.318Z,17.80
2018-12-26T09:10:20.101Z,17.70
2018-12-26T09:12:47.887Z,17.80
2018-12-26T09:15:15.678Z,17.80
2018-12-26T09:17:43.873Z,17.80
2018-12-26T09:20:11.661Z,17.80
2018-12-26T09:22:42.527Z,17.80
2018-12-26T09:25:10.309Z,17.80
2018-12-26T09:27:38.090Z,17.80
2018-12-26T09:30:06.955Z,17.80
2018-12-26T09:32:34.708Z,17.80
2018-12-26T09:35:02.666Z,17.80
2018-12-26T09:37:30.448Z,17.80
2018-12-26T09:39:58.240Z,17.80
2018-12-26T09:42:26.014Z,17.80
2018-12-26T09:44:54.534Z,17.80
2018-12-26T09:47:22.577Z,17.70
2018-12-26T09:49:50.366Z,17.80
2018-12-26T09:52:18.148Z,17.80
2018-12-26T09:54:45.942Z,17.80
2018-12-26T09:57:16.451Z,17.80
2018-12-26T09:59:44.241Z,17.80
2018-12-26T10:02:12.024Z,17.80
2018-12-26T10:04:39.855Z,17.80
2018-12-26T10:07:07.638Z,17.80
2018-12-26T10:09:35.855Z,17.80
2018-12-26T10:12:03.644Z,17.80
2018-12-26T10:14:31.418Z,17.80
2018-12-26T10:16:59.196Z,17.80
2018-12-26T10:19:26.982Z,17.80
2018-12-26T10:21:56.414Z,17.80
2018-12-26T10:24:26.935Z,17.80
2018-12-26T10:26:56.371Z,17.80
2018-12-26T10:29:27.361Z,17.80
2018-12-26T10:31:55.148Z,17.80
2018-12-26T10:34:22.929Z,17.80
2018-12-26T10:36:50.704Z,17.80
2018-12-26T10:39:21.669Z,17.80
2018-12-26T10:41:49.470Z,17.80
2018-12-26T10:44:20.308Z,17.80
2018-12-26T10:46:50.889Z,17.80
2018-12-26T10:49:18.663Z,17.80
2018-12-26T10:51:46.496Z,17.80
2018-12-26T10:54:14.614Z,17.80
2018-12-26T10:56:42.390Z,17.80
2018-12-26T10:59:12.837Z,17.80
2018-12-26T11:01:43.487Z,17.80
2018-12-26T11:04:11.271Z,17.80
2018-12-26T11:06:39.059Z,17.80
2018-12-26T11:09:06.943Z,17.80
2018-12-26T11:11:34.721Z,17.80
2018-12-26T11:14:02.514Z,17.90
2018-12-26T11:16:30.725Z,17.80
2018-12-26T11:18:58.793Z,17.90
2018-12-26T11:21:26.576Z,17.80
2018-12-26T11:23:54.484Z,17.80
2018-12-26T11:26:22.609Z,17.80
2018-12-26T11:28:50.448Z,17.80
2018-12-26T11:31:18.269Z,17.80
2018-12-26T11:33:46.406Z,17.80
2018-12-26T11:36:14.193Z,17.90
2018-12-26T11:38:41.978Z,17.90
2018-12-26T11:41:09.763Z,17.90
2018-12-26T11:43:37.558Z,17.90
2018-12-26T11:46:05.334Z,17.90
2018-12-26T11:48:33.109Z,17.90
2018-12-26T11:51:00.938Z,17.90
2018-12-26T11:53:28.758Z,17.90
2018-12-26T11:55:56.546Z,17.90
2018-12-26T11:58:27.446Z,17.90
2018-12-26T12:00:55.708Z,17.90
2018-12-26T12:03:25.459Z,17.90
2018-12-26T12:05:52.971Z,17.90
2018-12-26T12:08:20.752Z,17.90
2018-12-26T12:10:50.165Z,17.90
2018-12-26T12:13:18.128Z,17.90
2018-12-26T12:15:45.928Z,17.90
2018-12-26T12:18:13.706Z,17.90
2018-12-26T12:20:41.488Z,17.90
2018-12-26T12:23:09.273Z,17.90
2018-12-26T12:25:37.054Z,17.90
2018-12-26T12:28:04.882Z,17.90
2018-12-26T12:30:32.670Z,18.00
2018-12-26T12:33:00.446Z,17.90
2018-12-26T12:35:28.241Z,17.90
2018-12-26T12:37:57.330Z,17.90
2018-12-26T12:40:28.237Z,17.90
2018-12-26T12:42:56.028Z,17.90
2018-12-26T12:45:23.871Z,17.90
2018-12-26T12:47:51.663Z,17.90
2018-12-26T12:50:19.446Z,18.00
2018-12-26T12:52:47.223Z,17.90
2018-12-26T12:55:15.374Z,17.90
2018-12-26T12:57:43.142Z,17.90
2018-12-26T13:00:10.928Z,17.90
2018-12-26T13:02:39.059Z,17.90
2018-12-26T13:05:06.852Z,17.90
2018-12-26T13:07:34.625Z,17.90
2018-12-26T13:10:02.415Z,17.90
2018-12-26T13:12:30.199Z,17.90
2018-12-26T13:15:00.758Z,17.90
2018-12-26T13:17:28.539Z,17.90
2018-12-26T13:19:56.316Z,18.00
2018-12-26T13:22:25.084Z,17.90
2018-12-26T13:24:52.879Z,18.00
2018-12-26T13:27:20.691Z,17.90
2018-12-26T13:29:53.619Z,18.00
2018-12-26T13:32:17.892Z,18.00
2018-12-26T13:34:45.989Z,17.90
2018-12-26T13:37:13.766Z,18.00
2018-12-26T13:39:41.546Z,18.00
2018-12-26T13:42:09.343Z,18.00
2018-12-26T13:44:37.135Z,18.00
2018-12-26T13:47:04.920Z,18.00
2018-12-26T13:49:32.718Z,17.90
2018-12-26T13:52:00.495Z,18.00
2018-12-26T13:54:28.282Z,17.90
2018-12-26T13:56:56.476Z,17.90
2018-12-26T13:59:25.782Z,18.00
2018-12-26T14:01:54.671Z,18.00
2018-12-26T14:04:22.809Z,18.00
2018-12-26T14:06:50.585Z,18.00
2018-12-26T14:09:18.376Z,18.00
2018-12-26T14:11:46.140Z,18.00
2018-12-26T14:14:16.938Z,18.00
2018-12-26T14:16:44.819Z,18.00
2018-12-26T14:19:13.074Z,18.00
2018-12-26T14:21:40.889Z,18.00
2018-12-26T14:24:08.664Z,18.00
2018-12-26T14:26:36.484Z,18.00
2018-12-26T14:29:07.284Z,18.00
2018-12-26T14:31:35.073Z,18.00
2018-12-26T14:34:02.849Z,18.00
2018-12-26T14:36:30.679Z,18.00
2018-12-26T14:38:58.774Z,18.00
2018-12-26T14:41:29.258Z,18.00
2018-12-26T14:43:57.099Z,18.00
2018-12-26T14:46:28.069Z,18.00
2018-12-26T14:48:55.838Z,18.00
2018-12-26T14:51:26.479Z,18.00
2018-12-26T14:53:53.064Z,18.00
2018-12-26T14:56:20.859Z,18.00
2018-12-26T14:58:48.668Z,18.00
2018-12-26T15:01:16.454Z,18.00
2018-12-26T15:03:47.003Z,18.00
2018-12-26T15:06:14.785Z,18.00
2018-12-26T15:08:42.567Z,18.10
2018-12-26T15:11:10.388Z,18.10
2018-12-26T15:13:38.538Z,18.00
2018-12-26T15:16:06.313Z,18.00
2018-12-26T15:18:37.052Z,18.10
2018-12-26T15:21:04.830Z,18.10
2018-12-26T15:23:32.607Z,18.10
2018-12-26T15:26:00.393Z,18.10
2018-12-26T15:28:28.175Z,18.10
2018-12-26T15:30:55.956Z,18.00
2018-12-26T15:33:23.858Z,18.10
2018-12-26T15:35:54.912Z,18.00
2018-12-26T15:38:23.030Z,18.00
2018-12-26T15:40:50.862Z,18.00
2018-12-26T15:43:19.024Z,18.10
2018-12-26T15:45:46.818Z,18.00
2018-12-26T15:48:14.601Z,18.10
2018-12-26T15:50:42.388Z,18.00
2018-12-26T15:53:13.115Z,18.10
2018-12-26T15:55:40.891Z,18.00
2018-12-26T15:58:08.678Z,18.00
2018-12-26T16:00:37.511Z,18.00
2018-12-26T16:03:05.649Z,18.00
2018-12-26T16:05:33.446Z,18.00
2018-12-26T16:08:01.219Z,18.00
2018-12-26T16:10:31.785Z,18.00
2018-12-26T16:12:59.567Z,18.00
2018-12-26T16:15:27.352Z,18.00
2018-12-26T16:17:55.170Z,18.00
2018-12-26T16:20:22.971Z,18.00
2018-12-26T16:22:56.485Z,18.00
2018-12-26T16:25:27.372Z,18.00
2018-12-26T16:27:58.046Z,18.00
2018-12-26T16:30:28.616Z,18.10
2018-12-26T16:32:56.400Z,18.00
2018-12-26T16:35:27.552Z,18.10
2018-12-26T16:38:01.641Z,18.10
2018-12-26T16:40:27.606Z,18.10
2018-12-26T16:42:57.004Z,18.10
2018-12-26T16:45:27.595Z,18.10
2018-12-26T16:47:58.135Z,18.10
2018-12-26T16:50:28.653Z,18.10
2018-12-26T16:52:59.238Z,18.00
2018-12-26T16:55:29.561Z,18.00
2018-12-26T16:57:57.354Z,18.10
2018-12-26T17:00:28.077Z,18.10
2018-12-26T17:02:58.863Z,18.10
2018-12-26T17:05:29.631Z,18.10
2018-12-26T17:08:00.601Z,18.00
2018-12-26T17:10:31.462Z,18.00
2018-12-26T17:13:02.191Z,18.10
2018-12-26T17:15:32.973Z,18.00
2018-12-26T17:18:03.582Z,18.00
2018-12-26T17:20:34.391Z,18.10
2018-12-26T17:23:04.949Z,18.10
2018-12-26T17:25:32.717Z,18.10
2018-12-26T17:28:03.509Z,18.10
2018-12-26T17:30:34.590Z,18.10
2018-12-26T17:33:05.067Z,18.10
2018-12-26T17:35:35.559Z,18.10
2018-12-26T17:38:06.250Z,18.10
2018-12-26T17:40:34.035Z,18.10
2018-12-26T17:43:04.759Z,18.10
2018-12-26T17:45:35.605Z,18.10
2018-12-26T17:48:06.322Z,18.10
2018-12-26T17:50:47.117Z,18.10
2018-12-26T17:53:23.651Z,18.10
2018-12-26T17:56:11.241Z,18.10
2018-12-26T17:58:43.477Z,18.10
2018-12-26T18:01:15.997Z,18.10
2018-12-26T18:03:46.507Z,18.10
2018-12-26T18:06:14.423Z,18.00
2018-12-26T18:08:42.212Z,18.10
2018-12-26T18:11:10.044Z,18.10
2018-12-26T18:13:38.313Z,18.10
2018-12-26T18:16:06.138Z,18.10
2018-12-26T18:18:33.919Z,18.10
2018-12-26T18:21:01.708Z,18.10
2018-12-26T18:23:29.497Z,18.10
2018-12-26T18:26:00.521Z,18.10
2018-12-26T18:28:28.629Z,18.20
2018-12-26T18:30:56.455Z,18.20
2018-12-26T18:33:24.676Z,18.20
2018-12-26T18:35:58.489Z,18.20
2018-12-26T18:38:26.276Z,18.20
2018-12-26T18:40:57.057Z,18.20
2018-12-26T18:43:24.922Z,18.20
2018-12-26T18:45:52.700Z,18.20
2018-12-26T18:48:20.497Z,18.10
2018-12-26T18:50:48.619Z,18.20
2018-12-26T18:53:16.421Z,18.10
2018-12-26T18:55:44.206Z,18.20
2018-12-26T18:58:12.015Z,18.10
2018-12-26T19:00:39.812Z,18.10
2018-12-26T19:03:07.592Z,18.20
2018-12-26T19:05:35.776Z,18.20
2018-12-26T19:08:03.568Z,18.20
2018-12-26T19:10:31.335Z,18.10
2018-12-26T19:12:59.429Z,18.20
2018-12-26T19:15:27.215Z,18.20
2018-12-26T19:17:58.428Z,18.20
2018-12-26T19:20:29.159Z,18.20
2018-12-26T19:22:56.953Z,18.10
2018-12-26T19:25:27.654Z,18.10
2018-12-26T19:27:57.071Z,18.20
2018-12-26T19:30:24.920Z,18.20
2018-12-26T19:32:55.983Z,18.20
2018-12-26T19:35:23.777Z,18.20
2018-12-26T19:37:51.556Z,18.20
2018-12-26T19:40:19.339Z,18.20
2018-12-26T19:42:47.135Z,18.20
2018-12-26T19:45:15.315Z,18.20
2018-12-26T19:47:43.099Z,18.20
2018-12-26T19:50:10.886Z,18.20
2018-12-26T19:52:38.678Z,18.20
2018-12-26T19:55:07.648Z,18.20
2018-12-26T19:57:35.422Z,18.20
2018-12-26T20:00:03.223Z,18.20
2018-12-26T20:02:30.999Z,18.20
2018-12-26T20:04:58.792Z,18.20
2018-12-26T20:07:26.580Z,18.20
2018-12-26T20:09:55.246Z,18.20
2018-12-26T20:12:24.678Z,18.20
2018-12-26T20:14:52.852Z,18.20
2018-12-26T20:17:25.531Z,18.20
2018-12-26T20:19:55.983Z,18.20
2018-12-26T20:22:23.782Z,18.20
2018-12-26T20:24:51.568Z,18.20
2018-12-26T20:27:22.374Z,18.20
2018-12-26T20:29:50.169Z,18.20
2018-12-26T20:32:20.702Z,18.20
2018-12-26T20:34:48.579Z,18.20
2018-12-26T20:37:19.186Z,18.20
2018-12-26T20:39:50.532Z,18.20
2018-12-26T20:42:18.309Z,18.20
2018-12-26T20:44:46.094Z,18.20
2018-12-26T20:47:13.868Z,18.20
2018-12-26T20:49:44.857Z,18.20
2018-12-26T20:52:15.642Z,18.20
2018-12-26T20:54:43.421Z,18.20
2018-12-26T20:57:13.750Z,18.20
2018-12-26T20:59:41.535Z,18.20
2018-12-26T21:02:09.312Z,18.20
2018-12-26T21:04:37.154Z,18.20
2018-12-26T21:07:04.936Z,18.20
2018-12-26T21:09:32.717Z,18.20
2018-12-26T21:12:03.178Z,18.20
2018-12-26T21:14:30.957Z,18.10
2018-12-26T21:17:02.073Z,18.10
2018-12-26T21:19:29.848Z,18.10
2018-12-26T21:22:00.945Z,18.10
2018-12-26T21:24:31.735Z,18.10
2018-12-26T21:26:59.524Z,18.10
2018-12-26T21:29:27.299Z,18.10
2018-12-26T21:31:57.950Z,18.00
2018-12-26T21:34:25.770Z,18.00
2018-12-26T21:36:54.708Z,18.10
2018-12-26T21:39:22.545Z,18.00
2018-12-26T21:41:53.253Z,18.00
2018-12-26T21:44:26.247Z,18.00
2018-12-26T21:46:57.368Z,18.00
2018-12-26T21:49:25.206Z,17.90
2018-12-26T21:51:53.023Z,17.90
2018-12-26T21:54:21.859Z,17.90
2018-12-26T21:56:49.666Z,17.90
2018-12-26T21:59:17.464Z,17.90
2018-12-26T22:01:48.416Z,17.90
2018-12-26T22:04:16.245Z,17.90
2018-12-26T22:06:44.081Z,17.90
2018-12-26T22:09:14.578Z,17.90
2018-12-26T22:11:42.427Z,17.90
2018-12-26T22:14:10.214Z,17.80
2018-12-26T22:16:38.412Z,17.80
2018-12-26T22:19:08.948Z,17.80
2018-12-26T22:21:40.070Z,17.80
2018-12-26T22:24:07.855Z,17.80
2018-12-26T22:26:42.991Z,17.80
2018-12-26T22:29:08.172Z,17.80
2018-12-26T22:31:38.880Z,17.70
2018-12-26T22:34:09.669Z,17.80
2018-12-26T22:36:40.159Z,17.70
2018-12-26T22:39:08.401Z,17.70
2018-12-26T22:41:36.203Z,17.70
2018-12-26T22:44:07.082Z,17.70
2018-12-26T22:46:35.036Z,17.70
2018-12-26T22:49:05.484Z,17.70
2018-12-26T22:51:41.657Z,17.70
2018-12-26T22:54:02.746Z,17.70
2018-12-26T22:56:30.619Z,17.70
2018-12-26T22:59:01.422Z,17.70
2018-12-26T23:01:29.465Z,17.70
2018-12-26T23:04:00.304Z,17.70
2018-12-26T23:06:28.231Z,17.70
2018-12-26T23:08:56.003Z,17.60
2018-12-26T23:11:26.585Z,17.70
2018-12-26T23:13:57.136Z,17.70
2018-12-26T23:16:27.787Z,17.70
2018-12-26T23:18:58.662Z,17.60
2018-12-26T23:21:26.494Z,17.60
2018-12-26T23:23:57.385Z,17.60
2018-12-26T23:26:25.186Z,17.60
2018-12-26T23:28:55.744Z,17.60
2018-12-26T23:31:26.661Z,17.60
2018-12-26T23:33:54.939Z,17.60
2018-12-26T23:36:25.816Z,17.60
2018-12-26T23:38:56.466Z,17.60
2018-12-26T23:41:27.048Z,17.60
2018-12-26T23:43:58.269Z,17.60
2018-12-26T23:46:28.723Z,17.60
2018-12-26T23:48:56.497Z,17.60
2018-12-26T23:51:27.295Z,17.60
2018-12-26T23:53:57.783Z,17.60
2018-12-26T23:56:28.649Z,17.60
2018-12-26T23:58:56.822Z,17.60
